Terminal Aerodrome Forecast
Issued by NWS Memphis, TN

Home | Current Version | Previous Version | Text Only | Print | Product List | Glossary On
Versions: 1 2 3 4 5 6 7 8 9 10 11 12 13 14 15 16 17 18 19 20 21 22 23 24 25 26 27 28 29 30 31 32 33
764
FTUS44 KMEG 181731
TAFMEM
TAF
KMEM 181731Z 1818/1918 07004KT P6SM BKN035 OVC100
     FM190100 08005KT P6SM VCSH BKN025 OVC050
     FM190300 09005KT 6SM BR VCSH OVC010
     FM190600 11005KT 4SM -SHRA BR OVC007
     FM190900 14007KT 4SM SHRA BR OVC004=

USA.gov is the U.S. government's official web portal to all federal, state and local government web resources and services.